sensor_id;sensor_type;location;lat;lon;timestamp;P1;durP1;ratioP1;P2;durP2;ratioP2
7817;SDS011;3954;52.624;9.212;2023-12-28T00:00:17;2.90;;;1.60;;
7817;SDS011;3954;52.624;9.212;2023-12-28T00:02:43;3.30;;;1.90;;
7817;SDS011;3954;52.624;9.212;2023-12-28T00:05:09;2.87;;;1.70;;
7817;SDS011;3954;52.624;9.212;2023-12-28T00:07:35;1.50;;;1.40;;
7817;SDS011;3954;52.624;9.212;2023-12-28T00:10:01;2.70;;;1.60;;
7817;SDS011;3954;52.624;9.212;2023-12-28T00:12:27;2.27;;;1.43;;
7817;SDS011;3954;52.624;9.212;2023-12-28T00:14:53;2.80;;;1.50;;
7817;SDS011;3954;52.624;9.212;2023-12-28T00:17:20;2.10;;;1.70;;
7817;SDS011;3954;52.624;9.212;2023-12-28T00:19:46;3.20;;;1.60;;
7817;SDS011;3954;52.624;9.212;2023-12-28T00:22:12;2.57;;;1.70;;
7817;SDS011;3954;52.624;9.212;2023-12-28T00:24:38;2.70;;;1.70;;
7817;SDS011;3954;52.624;9.212;2023-12-28T00:27:04;6.57;;;2.00;;
7817;SDS011;3954;52.624;9.212;2023-12-28T00:29:30;2.20;;;1.77;;
7817;SDS011;3954;52.624;9.212;2023-12-28T00:31:57;1.97;;;1.50;;
7817;SDS011;3954;52.624;9.212;2023-12-28T00:34:24;3.80;;;2.07;;
7817;SDS011;3954;52.624;9.212;2023-12-28T00:36:50;2.43;;;1.80;;
7817;SDS011;3954;52.624;9.212;2023-12-28T00:39:16;2.97;;;1.87;;
7817;SDS011;3954;52.624;9.212;2023-12-28T00:41:42;1.90;;;1.73;;
7817;SDS011;3954;52.624;9.212;2023-12-28T00:44:08;3.40;;;2.03;;
7817;SDS011;3954;52.624;9.212;2023-12-28T00:46:34;2.60;;;1.97;;
7817;SDS011;3954;52.624;9.212;2023-12-28T00:49:00;1.87;;;1.57;;
7817;SDS011;3954;52.624;9.212;2023-12-28T00:51:28;4.03;;;1.83;;
7817;SDS011;3954;52.624;9.212;2023-12-28T00:53:54;5.03;;;1.77;;
7817;SDS011;3954;52.624;9.212;2023-12-28T00:56:20;4.60;;;2.20;;
7817;SDS011;3954;52.624;9.212;2023-12-28T00:58:46;2.20;;;2.00;;
7817;SDS011;3954;52.624;9.212;2023-12-28T01:01:12;3.30;;;2.10;;
7817;SDS011;3954;52.624;9.212;2023-12-28T01:03:38;2.33;;;1.90;;
7817;SDS011;3954;52.624;9.212;2023-12-28T01:06:04;4.03;;;2.13;;
7817;SDS011;3954;52.624;9.212;2023-12-28T01:08:32;3.10;;;2.23;;
7817;SDS011;3954;52.624;9.212;2023-12-28T01:11:01;2.40;;;1.70;;
7817;SDS011;3954;52.624;9.212;2023-12-28T01:13:27;2.93;;;1.97;;
7817;SDS011;3954;52.624;9.212;2023-12-28T01:15:53;2.37;;;2.17;;
7817;SDS011;3954;52.624;9.212;2023-12-28T01:18:19;3.30;;;2.30;;
7817;SDS011;3954;52.624;9.212;2023-12-28T01:20:45;2.10;;;1.90;;
7817;SDS011;3954;52.624;9.212;2023-12-28T01:23:11;2.10;;;1.90;;
7817;SDS011;3954;52.624;9.212;2023-12-28T01:25:38;2.50;;;1.80;;
7817;SDS011;3954;52.624;9.212;2023-12-28T01:28:04;3.63;;;2.40;;
7817;SDS011;3954;52.624;9.212;2023-12-28T01:30:30;3.80;;;2.13;;
7817;SDS011;3954;52.624;9.212;2023-12-28T01:32:56;3.63;;;2.30;;
7817;SDS011;3954;52.624;9.212;2023-12-28T01:35:22;2.57;;;2.10;;
7817;SDS011;3954;52.624;9.212;2023-12-28T01:37:48;3.23;;;2.07;;
7817;SDS011;3954;52.624;9.212;2023-12-28T01:40:15;4.37;;;2.33;;
7817;SDS011;3954;52.624;9.212;2023-12-28T01:42:44;2.60;;;2.13;;
7817;SDS011;3954;52.624;9.212;2023-12-28T01:45:10;2.97;;;1.93;;
7817;SDS011;3954;52.624;9.212;2023-12-28T01:47:36;4.37;;;2.20;;
7817;SDS011;3954;52.624;9.212;2023-12-28T01:50:03;4.17;;;2.57;;
7817;SDS011;3954;52.624;9.212;2023-12-28T01:52:31;3.53;;;2.27;;
7817;SDS011;3954;52.624;9.212;2023-12-28T01:54:57;3.30;;;2.57;;
7817;SDS011;3954;52.624;9.212;2023-12-28T01:57:23;4.00;;;2.30;;
7817;SDS011;3954;52.624;9.212;2023-12-28T01:59:51;2.20;;;2.00;;
7817;SDS011;3954;52.624;9.212;2023-12-28T02:02:17;2.50;;;2.30;;
7817;SDS011;3954;52.624;9.212;2023-12-28T02:04:44;3.03;;;2.30;;
7817;SDS011;3954;52.624;9.212;2023-12-28T02:07:10;3.13;;;2.50;;
7817;SDS011;3954;52.624;9.212;2023-12-28T02:09:36;2.43;;;2.10;;
7817;SDS011;3954;52.624;9.212;2023-12-28T02:12:02;3.77;;;2.47;;
7817;SDS011;3954;52.624;9.212;2023-12-28T02:14:29;3.63;;;2.43;;
7817;SDS011;3954;52.624;9.212;2023-12-28T02:17:00;3.13;;;2.30;;
7817;SDS011;3954;52.624;9.212;2023-12-28T02:19:31;3.90;;;2.30;;
7817;SDS011;3954;52.624;9.212;2023-12-28T02:21:58;2.40;;;2.20;;
7817;SDS011;3954;52.624;9.212;2023-12-28T02:24:24;2.70;;;2.33;;
7817;SDS011;3954;52.624;9.212;2023-12-28T02:26:52;5.53;;;2.43;;
7817;SDS011;3954;52.624;9.212;2023-12-28T02:29:18;3.17;;;2.70;;
7817;SDS011;3954;52.624;9.212;2023-12-28T02:31:46;3.40;;;2.50;;
7817;SDS011;3954;52.624;9.212;2023-12-28T02:34:16;4.87;;;2.70;;
7817;SDS011;3954;52.624;9.212;2023-12-28T02:36:44;2.33;;;2.13;;
7817;SDS011;3954;52.624;9.212;2023-12-28T02:39:11;2.77;;;2.57;;
7817;SDS011;3954;52.624;9.212;2023-12-28T02:41:38;3.97;;;2.57;;
7817;SDS011;3954;52.624;9.212;2023-12-28T02:44:05;5.20;;;2.80;;
7817;SDS011;3954;52.624;9.212;2023-12-28T02:46:31;3.00;;;2.70;;
7817;SDS011;3954;52.624;9.212;2023-12-28T02:48:57;5.00;;;2.93;;
7817;SDS011;3954;52.624;9.212;2023-12-28T02:51:24;5.57;;;2.87;;
7817;SDS011;3954;52.624;9.212;2023-12-28T02:53:50;3.03;;;2.53;;
7817;SDS011;3954;52.624;9.212;2023-12-28T02:56:16;3.10;;;2.83;;
7817;SDS011;3954;52.624;9.212;2023-12-28T02:58:42;4.10;;;3.10;;
7817;SDS011;3954;52.624;9.212;2023-12-28T03:01:09;4.20;;;3.07;;
7817;SDS011;3954;52.624;9.212;2023-12-28T03:03:36;5.60;;;2.90;;
7817;SDS011;3954;52.624;9.212;2023-12-28T03:06:02;3.73;;;2.90;;
7817;SDS011;3954;52.624;9.212;2023-12-28T03:08:28;3.20;;;2.90;;
7817;SDS011;3954;52.624;9.212;2023-12-28T03:10:54;4.10;;;3.10;;
7817;SDS011;3954;52.624;9.212;2023-12-28T03:13:20;4.50;;;3.33;;
7817;SDS011;3954;52.624;9.212;2023-12-28T03:15:46;3.10;;;2.80;;
7817;SDS011;3954;52.624;9.212;2023-12-28T03:18:13;4.83;;;3.10;;
7817;SDS011;3954;52.624;9.212;2023-12-28T03:20:39;3.63;;;2.50;;
7817;SDS011;3954;52.624;9.212;2023-12-28T03:23:05;4.73;;;3.00;;
7817;SDS011;3954;52.624;9.212;2023-12-28T03:25:31;4.33;;;2.73;;
7817;SDS011;3954;52.624;9.212;2023-12-28T03:27:57;3.97;;;2.83;;
7817;SDS011;3954;52.624;9.212;2023-12-28T03:30:23;4.53;;;2.90;;
7817;SDS011;3954;52.624;9.212;2023-12-28T03:32:49;4.63;;;3.40;;
7817;SDS011;3954;52.624;9.212;2023-12-28T03:35:17;4.60;;;2.73;;
7817;SDS011;3954;52.624;9.212;2023-12-28T03:37:43;5.23;;;2.90;;
7817;SDS011;3954;52.624;9.212;2023-12-28T03:40:09;3.27;;;2.53;;
7817;SDS011;3954;52.624;9.212;2023-12-28T03:42:35;5.90;;;2.80;;
7817;SDS011;3954;52.624;9.212;2023-12-28T03:45:03;3.47;;;3.17;;
7817;SDS011;3954;52.624;9.212;2023-12-28T03:47:29;4.00;;;3.00;;
7817;SDS011;3954;52.624;9.212;2023-12-28T03:49:55;3.30;;;3.00;;
7817;SDS011;3954;52.624;9.212;2023-12-28T03:52:23;3.00;;;2.70;;
7817;SDS011;3954;52.624;9.212;2023-12-28T03:54:51;3.27;;;2.97;;
7817;SDS011;3954;52.624;9.212;2023-12-28T03:57:17;6.57;;;2.83;;
7817;SDS011;3954;52.624;9.212;2023-12-28T03:59:43;4.50;;;3.03;;
7817;SDS011;3954;52.624;9.212;2023-12-28T04:02:09;4.13;;;2.70;;
7817;SDS011;3954;52.624;9.212;2023-12-28T04:04:35;4.67;;;3.00;;
7817;SDS011;3954;52.624;9.212;2023-12-28T04:07:01;4.00;;;2.97;;
7817;SDS011;3954;52.624;9.212;2023-12-28T04:09:28;3.67;;;2.67;;
7817;SDS011;3954;52.624;9.212;2023-12-28T04:11:54;3.40;;;2.93;;
7817;SDS011;3954;52.624;9.212;2023-12-28T04:14:20;4.07;;;2.60;;
7817;SDS011;3954;52.624;9.212;2023-12-28T04:16:46;3.73;;;2.87;;
7817;SDS011;3954;52.624;9.212;2023-12-28T04:19:12;5.20;;;2.80;;
7817;SDS011;3954;52.624;9.212;2023-12-28T04:21:41;3.07;;;2.40;;
7817;SDS011;3954;52.624;9.212;2023-12-28T04:24:08;4.00;;;2.70;;
7817;SDS011;3954;52.624;9.212;2023-12-28T04:26:35;3.67;;;2.60;;
7817;SDS011;3954;52.624;9.212;2023-12-28T04:29:01;4.67;;;2.70;;
7817;SDS011;3954;52.624;9.212;2023-12-28T04:31:27;2.80;;;2.60;;
7817;SDS011;3954;52.624;9.212;2023-12-28T04:33:53;5.33;;;2.50;;
7817;SDS011;3954;52.624;9.212;2023-12-28T04:36:19;3.60;;;2.73;;
7817;SDS011;3954;52.624;9.212;2023-12-28T04:38:45;5.90;;;2.93;;
7817;SDS011;3954;52.624;9.212;2023-12-28T04:41:11;3.97;;;2.70;;
7817;SDS011;3954;52.624;9.212;2023-12-28T04:43:39;3.00;;;2.43;;
7817;SDS011;3954;52.624;9.212;2023-12-28T04:46:05;4.53;;;2.70;;
7817;SDS011;3954;52.624;9.212;2023-12-28T04:48:31;3.67;;;2.77;;
7817;SDS011;3954;52.624;9.212;2023-12-28T04:50:57;5.33;;;2.93;;
7817;SDS011;3954;52.624;9.212;2023-12-28T04:53:23;5.60;;;2.80;;
7817;SDS011;3954;52.624;9.212;2023-12-28T04:55:49;5.80;;;2.83;;
7817;SDS011;3954;52.624;9.212;2023-12-28T04:58:15;4.63;;;3.00;;
7817;SDS011;3954;52.624;9.212;2023-12-28T05:00:42;2.97;;;2.60;;
7817;SDS011;3954;52.624;9.212;2023-12-28T05:03:08;3.50;;;2.37;;
7817;SDS011;3954;52.624;9.212;2023-12-28T05:05:34;4.57;;;2.90;;
7817;SDS011;3954;52.624;9.212;2023-12-28T05:08:00;5.20;;;3.20;;
7817;SDS011;3954;52.624;9.212;2023-12-28T05:10:26;2.43;;;2.23;;
7817;SDS011;3954;52.624;9.212;2023-12-28T05:12:52;4.67;;;2.70;;
7817;SDS011;3954;52.624;9.212;2023-12-28T05:15:18;4.30;;;2.70;;
7817;SDS011;3954;52.624;9.212;2023-12-28T05:17:46;7.00;;;2.80;;
7817;SDS011;3954;52.624;9.212;2023-12-28T05:20:12;5.53;;;2.77;;
7817;SDS011;3954;52.624;9.212;2023-12-28T05:22:38;4.33;;;2.70;;
7817;SDS011;3954;52.624;9.212;2023-12-28T05:25:04;3.17;;;2.60;;
7817;SDS011;3954;52.624;9.212;2023-12-28T05:27:30;3.80;;;2.83;;
7817;SDS011;3954;52.624;9.212;2023-12-28T05:29:56;3.07;;;2.57;;
7817;SDS011;3954;52.624;9.212;2023-12-28T05:32:22;3.23;;;2.43;;
7817;SDS011;3954;52.624;9.212;2023-12-28T05:34:49;4.53;;;2.47;;
7817;SDS011;3954;52.624;9.212;2023-12-28T05:37:15;4.00;;;2.20;;
7817;SDS011;3954;52.624;9.212;2023-12-28T05:39:41;3.53;;;2.47;;
7817;SDS011;3954;52.624;9.212;2023-12-28T05:42:07;3.17;;;2.40;;
7817;SDS011;3954;52.624;9.212;2023-12-28T05:44:33;3.80;;;2.37;;
7817;SDS011;3954;52.624;9.212;2023-12-28T05:46:59;5.40;;;2.60;;
7817;SDS011;3954;52.624;9.212;2023-12-28T05:49:25;3.63;;;2.40;;
7817;SDS011;3954;52.624;9.212;2023-12-28T05:51:54;3.20;;;2.30;;
7817;SDS011;3954;52.624;9.212;2023-12-28T05:54:20;3.10;;;2.47;;
7817;SDS011;3954;52.624;9.212;2023-12-28T05:56:46;6.83;;;2.60;;
7817;SDS011;3954;52.624;9.212;2023-12-28T05:59:12;2.93;;;2.20;;
7817;SDS011;3954;52.624;9.212;2023-12-28T06:01:41;2.87;;;2.50;;
7817;SDS011;3954;52.624;9.212;2023-12-28T06:04:08;3.63;;;2.20;;
7817;SDS011;3954;52.624;9.212;2023-12-28T06:06:34;3.10;;;2.43;;
7817;SDS011;3954;52.624;9.212;2023-12-28T06:09:02;4.00;;;2.60;;
7817;SDS011;3954;52.624;9.212;2023-12-28T06:11:28;4.93;;;2.70;;
7817;SDS011;3954;52.624;9.212;2023-12-28T06:13:55;3.37;;;2.27;;
7817;SDS011;3954;52.624;9.212;2023-12-28T06:16:21;10.80;;;4.83;;
7817;SDS011;3954;52.624;9.212;2023-12-28T06:18:48;6.40;;;3.23;;
7817;SDS011;3954;52.624;9.212;2023-12-28T06:21:14;5.23;;;2.67;;
7817;SDS011;3954;52.624;9.212;2023-12-28T06:23:39;3.60;;;2.23;;
7817;SDS011;3954;52.624;9.212;2023-12-28T06:26:07;4.37;;;2.33;;
7817;SDS011;3954;52.624;9.212;2023-12-28T06:28:33;3.40;;;2.70;;
7817;SDS011;3954;52.624;9.212;2023-12-28T06:30:59;5.97;;;2.57;;
7817;SDS011;3954;52.624;9.212;2023-12-28T06:33:26;4.73;;;2.63;;
7817;SDS011;3954;52.624;9.212;2023-12-28T06:35:52;4.10;;;2.30;;
7817;SDS011;3954;52.624;9.212;2023-12-28T06:38:18;5.23;;;2.50;;
7817;SDS011;3954;52.624;9.212;2023-12-28T06:40:44;3.47;;;2.63;;
7817;SDS011;3954;52.624;9.212;2023-12-28T06:43:12;3.07;;;2.37;;
7817;SDS011;3954;52.624;9.212;2023-12-28T06:45:38;3.70;;;2.00;;
7817;SDS011;3954;52.624;9.212;2023-12-28T06:48:04;4.20;;;2.60;;
7817;SDS011;3954;52.624;9.212;2023-12-28T06:50:30;3.97;;;2.30;;
7817;SDS011;3954;52.624;9.212;2023-12-28T06:52:56;5.10;;;2.43;;
7817;SDS011;3954;52.624;9.212;2023-12-28T06:55:22;2.90;;;2.27;;
7817;SDS011;3954;52.624;9.212;2023-12-28T06:57:48;3.00;;;2.50;;
7817;SDS011;3954;52.624;9.212;2023-12-28T07:00:16;7.63;;;2.53;;
7817;SDS011;3954;52.624;9.212;2023-12-28T07:02:42;5.00;;;2.53;;
7817;SDS011;3954;52.624;9.212;2023-12-28T07:05:08;4.13;;;2.53;;
7817;SDS011;3954;52.624;9.212;2023-12-28T07:07:34;4.70;;;2.50;;
7817;SDS011;3954;52.624;9.212;2023-12-28T07:10:02;4.07;;;2.50;;
7817;SDS011;3954;52.624;9.212;2023-12-28T07:12:28;4.47;;;2.27;;
7817;SDS011;3954;52.624;9.212;2023-12-28T07:14:54;5.80;;;2.93;;
7817;SDS011;3954;52.624;9.212;2023-12-28T07:17:21;2.80;;;2.23;;
7817;SDS011;3954;52.624;9.212;2023-12-28T07:19:47;5.90;;;2.70;;
7817;SDS011;3954;52.624;9.212;2023-12-28T07:22:13;6.43;;;2.40;;
7817;SDS011;3954;52.624;9.212;2023-12-28T07:24:39;5.73;;;2.20;;
7817;SDS011;3954;52.624;9.212;2023-12-28T07:27:05;4.57;;;2.00;;
7817;SDS011;3954;52.624;9.212;2023-12-28T07:29:31;4.50;;;3.17;;
7817;SDS011;3954;52.624;9.212;2023-12-28T07:31:57;3.70;;;2.50;;
7817;SDS011;3954;52.624;9.212;2023-12-28T07:34:24;5.67;;;2.97;;
7817;SDS011;3954;52.624;9.212;2023-12-28T07:36:50;2.93;;;2.30;;
7817;SDS011;3954;52.624;9.212;2023-12-28T07:39:16;3.70;;;2.30;;
7817;SDS011;3954;52.624;9.212;2023-12-28T07:41:42;4.37;;;1.93;;
7817;SDS011;3954;52.624;9.212;2023-12-28T07:44:09;4.13;;;2.30;;
7817;SDS011;3954;52.624;9.212;2023-12-28T07:46:34;5.30;;;2.40;;
7817;SDS011;3954;52.624;9.212;2023-12-28T07:49:00;4.50;;;2.00;;
7817;SDS011;3954;52.624;9.212;2023-12-28T07:51:28;6.13;;;2.27;;
7817;SDS011;3954;52.624;9.212;2023-12-28T07:53:54;4.53;;;2.07;;
7817;SDS011;3954;52.624;9.212;2023-12-28T07:56:20;6.60;;;2.37;;
7817;SDS011;3954;52.624;9.212;2023-12-28T07:58:46;3.77;;;2.07;;
7817;SDS011;3954;52.624;9.212;2023-12-28T08:01:12;3.53;;;2.07;;
7817;SDS011;3954;52.624;9.212;2023-12-28T08:03:38;3.27;;;1.93;;
7817;SDS011;3954;52.624;9.212;2023-12-28T08:06:04;6.70;;;2.43;;
7817;SDS011;3954;52.624;9.212;2023-12-28T08:08:31;3.67;;;1.93;;
7817;SDS011;3954;52.624;9.212;2023-12-28T08:10:58;4.83;;;2.33;;
7817;SDS011;3954;52.624;9.212;2023-12-28T08:13:24;5.90;;;2.40;;
7817;SDS011;3954;52.624;9.212;2023-12-28T08:15:50;5.27;;;2.47;;
7817;SDS011;3954;52.624;9.212;2023-12-28T08:18:16;3.63;;;1.90;;
7817;SDS011;3954;52.624;9.212;2023-12-28T08:20:42;4.70;;;1.93;;
7817;SDS011;3954;52.624;9.212;2023-12-28T08:23:08;5.37;;;2.30;;
7817;SDS011;3954;52.624;9.212;2023-12-28T08:25:35;3.47;;;2.27;;
7817;SDS011;3954;52.624;9.212;2023-12-28T08:28:01;3.20;;;2.30;;
7817;SDS011;3954;52.624;9.212;2023-12-28T08:30:27;5.37;;;2.10;;
7817;SDS011;3954;52.624;9.212;2023-12-28T08:32:53;4.23;;;2.10;;
7817;SDS011;3954;52.624;9.212;2023-12-28T08:35:19;6.10;;;2.63;;
7817;SDS011;3954;52.624;9.212;2023-12-28T08:37:45;3.90;;;2.40;;
7817;SDS011;3954;52.624;9.212;2023-12-28T08:40:11;3.87;;;2.10;;
7817;SDS011;3954;52.624;9.212;2023-12-28T08:42:38;3.33;;;2.20;;
7817;SDS011;3954;52.624;9.212;2023-12-28T08:45:05;3.50;;;2.10;;
7817;SDS011;3954;52.624;9.212;2023-12-28T08:47:31;6.63;;;2.33;;
7817;SDS011;3954;52.624;9.212;2023-12-28T08:49:57;5.63;;;2.03;;
7817;SDS011;3954;52.624;9.212;2023-12-28T08:52:23;5.07;;;1.93;;
7817;SDS011;3954;52.624;9.212;2023-12-28T08:54:49;5.90;;;2.33;;
7817;SDS011;3954;52.624;9.212;2023-12-28T08:57:15;5.13;;;2.23;;
7817;SDS011;3954;52.624;9.212;2023-12-28T08:59:42;3.80;;;1.80;;
7817;SDS011;3954;52.624;9.212;2023-12-28T09:02:08;4.20;;;1.93;;
7817;SDS011;3954;52.624;9.212;2023-12-28T09:04:34;4.00;;;2.00;;
7817;SDS011;3954;52.624;9.212;2023-12-28T09:07:00;7.60;;;2.97;;
7817;SDS011;3954;52.624;9.212;2023-12-28T09:09:27;7.13;;;3.00;;
7817;SDS011;3954;52.624;9.212;2023-12-28T09:11:53;4.20;;;2.53;;
7817;SDS011;3954;52.624;9.212;2023-12-28T09:14:19;4.20;;;2.33;;
7817;SDS011;3954;52.624;9.212;2023-12-28T09:16:47;4.00;;;2.30;;
7817;SDS011;3954;52.624;9.212;2023-12-28T09:19:13;3.10;;;2.20;;
7817;SDS011;3954;52.624;9.212;2023-12-28T09:21:39;3.87;;;2.30;;
7817;SDS011;3954;52.624;9.212;2023-12-28T09:24:06;4.20;;;1.80;;
7817;SDS011;3954;52.624;9.212;2023-12-28T09:26:32;2.60;;;1.70;;
7817;SDS011;3954;52.624;9.212;2023-12-28T09:28:58;3.70;;;1.73;;
7817;SDS011;3954;52.624;9.212;2023-12-28T09:31:24;4.57;;;2.00;;
7817;SDS011;3954;52.624;9.212;2023-12-28T09:33:51;5.23;;;2.17;;
7817;SDS011;3954;52.624;9.212;2023-12-28T09:36:18;7.23;;;1.83;;
7817;SDS011;3954;52.624;9.212;2023-12-28T09:38:44;3.27;;;2.20;;
7817;SDS011;3954;52.624;9.212;2023-12-28T09:41:11;7.07;;;2.47;;
7817;SDS011;3954;52.624;9.212;2023-12-28T09:43:44;7.97;;;2.37;;
7817;SDS011;3954;52.624;9.212;2023-12-28T09:46:11;3.93;;;1.90;;
7817;SDS011;3954;52.624;9.212;2023-12-28T09:48:38;4.73;;;1.90;;
7817;SDS011;3954;52.624;9.212;2023-12-28T09:51:05;4.27;;;2.00;;
7817;SDS011;3954;52.624;9.212;2023-12-28T09:53:32;6.77;;;2.53;;
7817;SDS011;3954;52.624;9.212;2023-12-28T09:55:58;4.90;;;2.37;;
7817;SDS011;3954;52.624;9.212;2023-12-28T09:58:24;5.80;;;2.67;;
7817;SDS011;3954;52.624;9.212;2023-12-28T10:00:52;7.17;;;2.13;;
7817;SDS011;3954;52.624;9.212;2023-12-28T10:03:19;6.47;;;2.57;;
7817;SDS011;3954;52.624;9.212;2023-12-28T10:05:45;6.70;;;2.20;;
7817;SDS011;3954;52.624;9.212;2023-12-28T10:08:13;4.13;;;1.90;;
7817;SDS011;3954;52.624;9.212;2023-12-28T10:10:39;3.73;;;2.07;;
7817;SDS011;3954;52.624;9.212;2023-12-28T10:13:06;4.03;;;1.97;;
7817;SDS011;3954;52.624;9.212;2023-12-28T10:15:32;5.63;;;2.23;;
7817;SDS011;3954;52.624;9.212;2023-12-28T10:17:58;3.33;;;1.93;;
7817;SDS011;3954;52.624;9.212;2023-12-28T10:20:26;7.60;;;2.10;;
7817;SDS011;3954;52.624;9.212;2023-12-28T10:22:52;5.77;;;2.23;;
7817;SDS011;3954;52.624;9.212;2023-12-28T10:25:19;6.17;;;2.33;;
7817;SDS011;3954;52.624;9.212;2023-12-28T10:27:45;6.90;;;2.93;;
7817;SDS011;3954;52.624;9.212;2023-12-28T10:30:11;6.17;;;2.57;;
7817;SDS011;3954;52.624;9.212;2023-12-28T10:32:39;5.10;;;2.17;;
7817;SDS011;3954;52.624;9.212;2023-12-28T10:35:08;5.73;;;2.40;;
7817;SDS011;3954;52.624;9.212;2023-12-28T10:37:35;6.00;;;2.20;;
7817;SDS011;3954;52.624;9.212;2023-12-28T10:40:01;5.50;;;2.10;;
7817;SDS011;3954;52.624;9.212;2023-12-28T10:42:31;5.83;;;2.10;;
7817;SDS011;3954;52.624;9.212;2023-12-28T10:45:00;6.10;;;2.37;;
7817;SDS011;3954;52.624;9.212;2023-12-28T10:47:28;7.30;;;2.47;;
7817;SDS011;3954;52.624;9.212;2023-12-28T10:49:55;4.10;;;2.00;;
7817;SDS011;3954;52.624;9.212;2023-12-28T10:52:23;5.90;;;2.40;;
7817;SDS011;3954;52.624;9.212;2023-12-28T10:54:53;4.37;;;2.00;;
7817;SDS011;3954;52.624;9.212;2023-12-28T10:57:23;6.67;;;2.70;;
7817;SDS011;3954;52.624;9.212;2023-12-28T10:59:56;6.63;;;2.37;;
7817;SDS011;3954;52.624;9.212;2023-12-28T11:02:24;9.97;;;2.53;;
7817;SDS011;3954;52.624;9.212;2023-12-28T11:04:54;7.40;;;2.43;;
7817;SDS011;3954;52.624;9.212;2023-12-28T11:07:20;7.83;;;3.00;;
7817;SDS011;3954;52.624;9.212;2023-12-28T11:09:47;9.93;;;2.67;;
7817;SDS011;3954;52.624;9.212;2023-12-28T11:12:13;5.87;;;2.60;;
7817;SDS011;3954;52.624;9.212;2023-12-28T11:14:43;7.27;;;2.97;;
7817;SDS011;3954;52.624;9.212;2023-12-28T11:17:12;4.43;;;2.20;;
7817;SDS011;3954;52.624;9.212;2023-12-28T11:19:39;9.20;;;2.80;;
7817;SDS011;3954;52.624;9.212;2023-12-28T11:22:06;9.07;;;2.40;;
7817;SDS011;3954;52.624;9.212;2023-12-28T11:24:32;5.30;;;2.37;;
7817;SDS011;3954;52.624;9.212;2023-12-28T11:26:59;10.33;;;2.83;;
7817;SDS011;3954;52.624;9.212;2023-12-28T11:29:28;4.53;;;2.60;;
7817;SDS011;3954;52.624;9.212;2023-12-28T11:31:57;8.50;;;2.67;;
7817;SDS011;3954;52.624;9.212;2023-12-28T11:34:26;10.53;;;2.70;;
7817;SDS011;3954;52.624;9.212;2023-12-28T11:36:54;6.40;;;2.20;;
7817;SDS011;3954;52.624;9.212;2023-12-28T11:39:20;5.40;;;2.20;;
7817;SDS011;3954;52.624;9.212;2023-12-28T11:41:50;6.97;;;2.53;;
7817;SDS011;3954;52.624;9.212;2023-12-28T11:44:16;8.87;;;2.80;;
7817;SDS011;3954;52.624;9.212;2023-12-28T11:46:42;6.27;;;2.37;;
7817;SDS011;3954;52.624;9.212;2023-12-28T11:49:08;5.70;;;2.20;;
7817;SDS011;3954;52.624;9.212;2023-12-28T11:51:36;7.23;;;2.33;;
7817;SDS011;3954;52.624;9.212;2023-12-28T11:54:03;5.40;;;2.40;;
7817;SDS011;3954;52.624;9.212;2023-12-28T11:56:30;9.00;;;2.63;;
7817;SDS011;3954;52.624;9.212;2023-12-28T11:58:57;5.60;;;2.10;;
7817;SDS011;3954;52.624;9.212;2023-12-28T12:01:23;7.40;;;2.10;;
7817;SDS011;3954;52.624;9.212;2023-12-28T12:03:49;8.57;;;2.70;;
7817;SDS011;3954;52.624;9.212;2023-12-28T12:06:15;8.57;;;2.60;;
7817;SDS011;3954;52.624;9.212;2023-12-28T12:08:45;9.20;;;2.53;;
7817;SDS011;3954;52.624;9.212;2023-12-28T12:11:15;5.70;;;2.27;;
7817;SDS011;3954;52.624;9.212;2023-12-28T12:13:42;7.70;;;2.80;;
7817;SDS011;3954;52.624;9.212;2023-12-28T12:16:08;7.20;;;2.70;;
7817;SDS011;3954;52.624;9.212;2023-12-28T12:18:35;5.37;;;2.10;;
7817;SDS011;3954;52.624;9.212;2023-12-28T12:21:01;6.87;;;2.60;;
7817;SDS011;3954;52.624;9.212;2023-12-28T12:23:28;7.30;;;2.50;;
7817;SDS011;3954;52.624;9.212;2023-12-28T12:25:55;5.73;;;2.57;;
7817;SDS011;3954;52.624;9.212;2023-12-28T12:28:21;5.77;;;2.33;;
7817;SDS011;3954;52.624;9.212;2023-12-28T12:30:51;8.67;;;3.27;;
7817;SDS011;3954;52.624;9.212;2023-12-28T12:33:18;7.83;;;2.80;;
7817;SDS011;3954;52.624;9.212;2023-12-28T12:35:44;6.93;;;2.50;;
7817;SDS011;3954;52.624;9.212;2023-12-28T12:38:10;10.33;;;2.90;;
7817;SDS011;3954;52.624;9.212;2023-12-28T12:40:36;8.20;;;2.70;;
7817;SDS011;3954;52.624;9.212;2023-12-28T12:43:04;6.90;;;2.40;;
7817;SDS011;3954;52.624;9.212;2023-12-28T12:45:34;8.30;;;2.80;;
7817;SDS011;3954;52.624;9.212;2023-12-28T12:48:01;8.47;;;2.77;;
7817;SDS011;3954;52.624;9.212;2023-12-28T12:50:27;6.10;;;2.57;;
7817;SDS011;3954;52.624;9.212;2023-12-28T12:52:54;5.20;;;2.87;;
7817;SDS011;3954;52.624;9.212;2023-12-28T12:55:20;7.13;;;2.67;;
7817;SDS011;3954;52.624;9.212;2023-12-28T12:57:47;9.07;;;3.07;;
7817;SDS011;3954;52.624;9.212;2023-12-28T13:00:15;6.47;;;2.67;;
7817;SDS011;3954;52.624;9.212;2023-12-28T13:02:41;8.83;;;2.97;;
7817;SDS011;3954;52.624;9.212;2023-12-28T13:05:07;7.30;;;2.77;;
7817;SDS011;3954;52.624;9.212;2023-12-28T13:07:33;7.40;;;2.87;;
7817;SDS011;3954;52.624;9.212;2023-12-28T13:09:59;11.10;;;3.23;;
7817;SDS011;3954;52.624;9.212;2023-12-28T13:12:26;10.33;;;2.90;;
7817;SDS011;3954;52.624;9.212;2023-12-28T13:14:52;11.07;;;2.40;;
7817;SDS011;3954;52.624;9.212;2023-12-28T13:17:19;7.80;;;2.27;;
7817;SDS011;3954;52.624;9.212;2023-12-28T13:19:45;8.03;;;2.83;;
7817;SDS011;3954;52.624;9.212;2023-12-28T13:22:11;6.90;;;2.40;;
7817;SDS011;3954;52.624;9.212;2023-12-28T13:24:37;7.13;;;2.50;;
7817;SDS011;3954;52.624;9.212;2023-12-28T13:27:03;6.50;;;2.20;;
7817;SDS011;3954;52.624;9.212;2023-12-28T13:29:29;6.53;;;2.87;;
7817;SDS011;3954;52.624;9.212;2023-12-28T13:31:55;7.70;;;2.50;;
7817;SDS011;3954;52.624;9.212;2023-12-28T13:34:24;7.13;;;2.60;;
7817;SDS011;3954;52.624;9.212;2023-12-28T13:36:50;7.30;;;2.80;;
7817;SDS011;3954;52.624;9.212;2023-12-28T13:39:16;8.00;;;3.33;;
7817;SDS011;3954;52.624;9.212;2023-12-28T13:41:42;7.87;;;2.40;;
7817;SDS011;3954;52.624;9.212;2023-12-28T13:44:08;8.33;;;2.60;;
7817;SDS011;3954;52.624;9.212;2023-12-28T13:46:37;5.73;;;2.60;;
7817;SDS011;3954;52.624;9.212;2023-12-28T13:49:03;7.83;;;2.70;;
7817;SDS011;3954;52.624;9.212;2023-12-28T13:51:31;8.97;;;2.60;;
7817;SDS011;3954;52.624;9.212;2023-12-28T13:53:57;7.53;;;2.67;;
7817;SDS011;3954;52.624;9.212;2023-12-28T13:56:23;8.47;;;2.60;;
7817;SDS011;3954;52.624;9.212;2023-12-28T13:58:49;5.90;;;2.70;;
7817;SDS011;3954;52.624;9.212;2023-12-28T14:01:15;7.23;;;2.10;;
7817;SDS011;3954;52.624;9.212;2023-12-28T14:03:41;5.90;;;2.47;;
7817;SDS011;3954;52.624;9.212;2023-12-28T14:06:07;12.23;;;2.80;;
7817;SDS011;3954;52.624;9.212;2023-12-28T14:08:35;8.40;;;2.63;;
7817;SDS011;3954;52.624;9.212;2023-12-28T14:11:01;7.90;;;2.60;;
7817;SDS011;3954;52.624;9.212;2023-12-28T14:13:27;7.30;;;2.20;;
7817;SDS011;3954;52.624;9.212;2023-12-28T14:15:53;6.37;;;2.63;;
7817;SDS011;3954;52.624;9.212;2023-12-28T14:18:19;7.70;;;2.50;;
7817;SDS011;3954;52.624;9.212;2023-12-28T14:20:45;9.80;;;3.07;;
7817;SDS011;3954;52.624;9.212;2023-12-28T14:23:12;8.30;;;2.47;;
7817;SDS011;3954;52.624;9.212;2023-12-28T14:25:39;7.30;;;2.33;;
7817;SDS011;3954;52.624;9.212;2023-12-28T14:28:06;10.80;;;2.53;;
7817;SDS011;3954;52.624;9.212;2023-12-28T14:30:32;9.83;;;2.83;;
7817;SDS011;3954;52.624;9.212;2023-12-28T14:32:58;7.07;;;2.60;;
7817;SDS011;3954;52.624;9.212;2023-12-28T14:35:25;8.20;;;2.80;;
7817;SDS011;3954;52.624;9.212;2023-12-28T14:37:51;7.20;;;2.30;;
7817;SDS011;3954;52.624;9.212;2023-12-28T14:40:17;8.00;;;2.60;;
7817;SDS011;3954;52.624;9.212;2023-12-28T14:42:44;8.17;;;2.97;;
7817;SDS011;3954;52.624;9.212;2023-12-28T14:45:10;9.30;;;2.53;;
7817;SDS011;3954;52.624;9.212;2023-12-28T14:47:36;5.53;;;2.57;;
7817;SDS011;3954;52.624;9.212;2023-12-28T14:50:02;9.60;;;3.00;;
7817;SDS011;3954;52.624;9.212;2023-12-28T14:52:30;5.50;;;2.27;;
7817;SDS011;3954;52.624;9.212;2023-12-28T14:54:56;7.43;;;2.43;;
7817;SDS011;3954;52.624;9.212;2023-12-28T14:57:22;5.43;;;2.10;;
7817;SDS011;3954;52.624;9.212;2023-12-28T14:59:49;11.20;;;3.00;;
7817;SDS011;3954;52.624;9.212;2023-12-28T15:02:15;6.47;;;2.53;;
7817;SDS011;3954;52.624;9.212;2023-12-28T15:04:41;9.97;;;2.60;;
7817;SDS011;3954;52.624;9.212;2023-12-28T15:07:07;5.87;;;2.40;;
7817;SDS011;3954;52.624;9.212;2023-12-28T15:09:33;8.73;;;2.63;;